sensor_id;sensor_type;location;lat;lon;timestamp;temperature;humidity
5459;DHT22;2752;49.992;8.422;2023-04-29T00:02:15;12.60;99.90
5459;DHT22;2752;49.992;8.422;2023-04-29T00:04:42;12.60;99.90
5459;DHT22;2752;49.992;8.422;2023-04-29T00:07:10;12.60;99.90
5459;DHT22;2752;49.992;8.422;2023-04-29T00:09:39;12.70;99.90
5459;DHT22;2752;49.992;8.422;2023-04-29T00:12:06;12.70;99.90
5459;DHT22;2752;49.992;8.422;2023-04-29T00:14:34;12.80;99.90
5459;DHT22;2752;49.992;8.422;2023-04-29T00:17:01;13.00;99.90
5459;DHT22;2752;49.992;8.422;2023-04-29T00:19:27;13.00;98.10
5459;DHT22;2752;49.992;8.422;2023-04-29T00:21:54;13.00;96.40
5459;DHT22;2752;49.992;8.422;2023-04-29T00:24:22;13.00;93.90
5459;DHT22;2752;49.992;8.422;2023-04-29T00:26:49;13.10;94.00
5459;DHT22;2752;49.992;8.422;2023-04-29T00:29:16;13.30;90.60
5459;DHT22;2752;49.992;8.422;2023-04-29T00:31:43;13.20;85.60
5459;DHT22;2752;49.992;8.422;2023-04-29T00:34:09;13.20;86.40
5459;DHT22;2752;49.992;8.422;2023-04-29T00:36:36;13.20;85.20
5459;DHT22;2752;49.992;8.422;2023-04-29T00:39:03;13.20;83.90
5459;DHT22;2752;49.992;8.422;2023-04-29T00:41:31;13.30;82.50
5459;DHT22;2752;49.992;8.422;2023-04-29T00:43:58;13.30;80.10
5459;DHT22;2752;49.992;8.422;2023-04-29T00:46:25;13.30;78.10
5459;DHT22;2752;49.992;8.422;2023-04-29T00:48:51;13.30;75.70
5459;DHT22;2752;49.992;8.422;2023-04-29T00:51:18;13.30;74.60
5459;DHT22;2752;49.992;8.422;2023-04-29T00:53:45;13.20;73.40
5459;DHT22;2752;49.992;8.422;2023-04-29T00:56:12;13.20;71.50
5459;DHT22;2752;49.992;8.422;2023-04-29T00:58:40;13.00;74.20
5459;DHT22;2752;49.992;8.422;2023-04-29T01:01:14;12.80;76.00
5459;DHT22;2752;49.992;8.422;2023-04-29T01:03:41;12.70;78.90
5459;DHT22;2752;49.992;8.422;2023-04-29T01:06:13;12.70;82.10
5459;DHT22;2752;49.992;8.422;2023-04-29T01:08:48;12.70;82.60
5459;DHT22;2752;49.992;8.422;2023-04-29T01:11:20;12.70;80.60
5459;DHT22;2752;49.992;8.422;2023-04-29T01:13:56;12.60;81.00
5459;DHT22;2752;49.992;8.422;2023-04-29T01:16:28;12.70;83.60
5459;DHT22;2752;49.992;8.422;2023-04-29T01:18:57;12.80;82.40
5459;DHT22;2752;49.992;8.422;2023-04-29T01:21:25;12.90;80.50
5459;DHT22;2752;49.992;8.422;2023-04-29T01:23:53;13.00;78.70
5459;DHT22;2752;49.992;8.422;2023-04-29T01:26:21;13.00;77.90
5459;DHT22;2752;49.992;8.422;2023-04-29T01:28:53;12.90;79.00
5459;DHT22;2752;49.992;8.422;2023-04-29T01:31:27;12.90;80.00
5459;DHT22;2752;49.992;8.422;2023-04-29T01:34:08;12.80;78.70
5459;DHT22;2752;49.992;8.422;2023-04-29T01:36:45;12.60;81.40
5459;DHT22;2752;49.992;8.422;2023-04-29T01:39:19;12.60;83.80
5459;DHT22;2752;49.992;8.422;2023-04-29T01:41:56;12.60;84.80
5459;DHT22;2752;49.992;8.422;2023-04-29T01:44:27;12.70;83.30
5459;DHT22;2752;49.992;8.422;2023-04-29T01:46:55;12.60;81.90
5459;DHT22;2752;49.992;8.422;2023-04-29T01:49:23;12.50;83.40
5459;DHT22;2752;49.992;8.422;2023-04-29T01:51:50;12.60;84.40
5459;DHT22;2752;49.992;8.422;2023-04-29T01:54:18;12.70;84.40
5459;DHT22;2752;49.992;8.422;2023-04-29T01:56:47;12.50;83.30
5459;DHT22;2752;49.992;8.422;2023-04-29T01:59:14;12.50;85.90
5459;DHT22;2752;49.992;8.422;2023-04-29T02:01:40;12.50;85.80
5459;DHT22;2752;49.992;8.422;2023-04-29T02:04:07;12.60;86.50
5459;DHT22;2752;49.992;8.422;2023-04-29T02:06:34;12.60;85.50
5459;DHT22;2752;49.992;8.422;2023-04-29T02:09:00;12.60;85.90
5459;DHT22;2752;49.992;8.422;2023-04-29T02:11:28;12.50;84.80
5459;DHT22;2752;49.992;8.422;2023-04-29T02:13:55;12.60;87.10
5459;DHT22;2752;49.992;8.422;2023-04-29T02:16:22;12.50;85.80
5459;DHT22;2752;49.992;8.422;2023-04-29T02:18:48;12.50;86.90
5459;DHT22;2752;49.992;8.422;2023-04-29T02:21:15;12.40;87.80
5459;DHT22;2752;49.992;8.422;2023-04-29T02:23:41;12.40;88.80
5459;DHT22;2752;49.992;8.422;2023-04-29T02:26:08;12.40;86.70
5459;DHT22;2752;49.992;8.422;2023-04-29T02:28:36;12.50;87.00
5459;DHT22;2752;49.992;8.422;2023-04-29T02:31:03;12.50;88.50
5459;DHT22;2752;49.992;8.422;2023-04-29T02:33:30;12.50;86.00
5459;DHT22;2752;49.992;8.422;2023-04-29T02:35:57;12.50;86.00
5459;DHT22;2752;49.992;8.422;2023-04-29T02:38:24;12.40;88.10
5459;DHT22;2752;49.992;8.422;2023-04-29T02:40:51;12.40;87.80
5459;DHT22;2752;49.992;8.422;2023-04-29T02:43:18;12.40;88.80
5459;DHT22;2752;49.992;8.422;2023-04-29T02:45:45;12.40;89.50
5459;DHT22;2752;49.992;8.422;2023-04-29T02:48:12;12.50;90.40
5459;DHT22;2752;49.992;8.422;2023-04-29T02:50:39;12.60;86.60
5459;DHT22;2752;49.992;8.422;2023-04-29T02:53:05;12.60;85.40
5459;DHT22;2752;49.992;8.422;2023-04-29T02:55:32;12.80;83.90
5459;DHT22;2752;49.992;8.422;2023-04-29T02:57:59;12.90;80.60
5459;DHT22;2752;49.992;8.422;2023-04-29T03:00:25;12.90;79.60
5459;DHT22;2752;49.992;8.422;2023-04-29T03:02:53;13.00;78.90
5459;DHT22;2752;49.992;8.422;2023-04-29T03:05:20;12.90;77.90
5459;DHT22;2752;49.992;8.422;2023-04-29T03:07:47;12.90;79.40
5459;DHT22;2752;49.992;8.422;2023-04-29T03:10:14;13.00;78.20
5459;DHT22;2752;49.992;8.422;2023-04-29T03:12:42;12.90;77.90
5459;DHT22;2752;49.992;8.422;2023-04-29T03:15:09;12.90;78.90
5459;DHT22;2752;49.992;8.422;2023-04-29T03:17:37;12.90;79.10
5459;DHT22;2752;49.992;8.422;2023-04-29T03:20:07;12.90;78.90
5459;DHT22;2752;49.992;8.422;2023-04-29T03:22:35;12.90;79.50
5459;DHT22;2752;49.992;8.422;2023-04-29T03:25:01;12.90;79.40
5459;DHT22;2752;49.992;8.422;2023-04-29T03:27:28;12.80;80.00
5459;DHT22;2752;49.992;8.422;2023-04-29T03:29:55;12.80;79.90
5459;DHT22;2752;49.992;8.422;2023-04-29T03:32:21;12.70;79.80
5459;DHT22;2752;49.992;8.422;2023-04-29T03:34:48;12.80;80.10
5459;DHT22;2752;49.992;8.422;2023-04-29T03:37:16;12.70;75.70
5459;DHT22;2752;49.992;8.422;2023-04-29T03:39:43;12.80;74.40
5459;DHT22;2752;49.992;8.422;2023-04-29T03:42:10;12.80;73.50
5459;DHT22;2752;49.992;8.422;2023-04-29T03:44:36;12.80;73.40
5459;DHT22;2752;49.992;8.422;2023-04-29T03:47:03;12.80;72.20
5459;DHT22;2752;49.992;8.422;2023-04-29T03:49:31;12.80;71.70
5459;DHT22;2752;49.992;8.422;2023-04-29T03:51:57;12.80;72.50
5459;DHT22;2752;49.992;8.422;2023-04-29T03:54:26;12.90;72.50
5459;DHT22;2752;49.992;8.422;2023-04-29T03:56:52;12.90;71.50
5459;DHT22;2752;49.992;8.422;2023-04-29T03:59:19;12.90;71.40
5459;DHT22;2752;49.992;8.422;2023-04-29T04:01:46;12.90;70.30
5459;DHT22;2752;49.992;8.422;2023-04-29T04:04:13;12.90;70.00
5459;DHT22;2752;49.992;8.422;2023-04-29T04:06:40;12.90;69.90
5459;DHT22;2752;49.992;8.422;2023-04-29T04:09:08;12.90;70.90
5459;DHT22;2752;49.992;8.422;2023-04-29T04:11:36;12.80;71.00
5459;DHT22;2752;49.992;8.422;2023-04-29T04:14:03;12.90;69.60
5459;DHT22;2752;49.992;8.422;2023-04-29T04:16:30;12.90;68.80
5459;DHT22;2752;49.992;8.422;2023-04-29T04:18:57;12.90;66.70
5459;DHT22;2752;49.992;8.422;2023-04-29T04:21:24;12.80;67.10
5459;DHT22;2752;49.992;8.422;2023-04-29T04:23:52;12.90;65.00
5459;DHT22;2752;49.992;8.422;2023-04-29T04:26:19;12.90;61.00
5459;DHT22;2752;49.992;8.422;2023-04-29T04:28:47;12.90;62.50
5459;DHT22;2752;49.992;8.422;2023-04-29T04:31:15;13.00;62.80
5459;DHT22;2752;49.992;8.422;2023-04-29T04:33:42;13.00;57.50
5459;DHT22;2752;49.992;8.422;2023-04-29T04:36:09;13.00;58.10
5459;DHT22;2752;49.992;8.422;2023-04-29T04:38:36;13.00;56.50
5459;DHT22;2752;49.992;8.422;2023-04-29T04:41:05;13.00;53.70
5459;DHT22;2752;49.992;8.422;2023-04-29T04:43:33;13.00;52.30
5459;DHT22;2752;49.992;8.422;2023-04-29T04:46:09;13.10;53.30
5459;DHT22;2752;49.992;8.422;2023-04-29T04:48:36;13.00;50.60
5459;DHT22;2752;49.992;8.422;2023-04-29T04:51:07;13.00;50.10
5459;DHT22;2752;49.992;8.422;2023-04-29T04:53:34;13.00;51.30
5459;DHT22;2752;49.992;8.422;2023-04-29T04:58:29;12.80;52.30
5459;DHT22;2752;49.992;8.422;2023-04-29T05:00:57;12.80;54.00
5459;DHT22;2752;49.992;8.422;2023-04-29T05:03:25;12.80;54.00
5459;DHT22;2752;49.992;8.422;2023-04-29T05:05:53;12.70;53.10
5459;DHT22;2752;49.992;8.422;2023-04-29T05:08:20;12.70;53.10
5459;DHT22;2752;49.992;8.422;2023-04-29T05:10:47;12.90;50.90
5459;DHT22;2752;49.992;8.422;2023-04-29T05:13:14;12.80;49.20
5459;DHT22;2752;49.992;8.422;2023-04-29T05:15:41;12.70;51.30
5459;DHT22;2752;49.992;8.422;2023-04-29T05:18:09;12.70;54.00
5459;DHT22;2752;49.992;8.422;2023-04-29T05:20:37;12.80;50.30
5459;DHT22;2752;49.992;8.422;2023-04-29T05:23:04;12.70;45.30
5459;DHT22;2752;49.992;8.422;2023-04-29T05:25:32;12.60;47.20
5459;DHT22;2752;49.992;8.422;2023-04-29T05:30:26;12.70;40.70
5459;DHT22;2752;49.992;8.422;2023-04-29T05:32:53;12.70;44.10
5459;DHT22;2752;49.992;8.422;2023-04-29T05:35:21;12.70;43.10
5459;DHT22;2752;49.992;8.422;2023-04-29T05:37:49;12.80;45.30
5459;DHT22;2752;49.992;8.422;2023-04-29T05:40:16;12.90;36.80
5459;DHT22;2752;49.992;8.422;2023-04-29T05:42:43;12.90;33.90
5459;DHT22;2752;49.992;8.422;2023-04-29T05:45:10;12.90;31.10
5459;DHT22;2752;49.992;8.422;2023-04-29T05:47:38;12.90;31.10
5459;DHT22;2752;49.992;8.422;2023-04-29T05:50:05;12.90;29.90
5459;DHT22;2752;49.992;8.422;2023-04-29T05:52:32;12.90;28.80
5459;DHT22;2752;49.992;8.422;2023-04-29T05:55:01;13.00;27.70
5459;DHT22;2752;49.992;8.422;2023-04-29T05:57:28;13.00;26.90
5459;DHT22;2752;49.992;8.422;2023-04-29T05:59:55;13.00;25.10
5459;DHT22;2752;49.992;8.422;2023-04-29T06:02:24;13.10;25.10
5459;DHT22;2752;49.992;8.422;2023-04-29T06:04:51;13.10;27.40
5459;DHT22;2752;49.992;8.422;2023-04-29T06:07:18;13.20;29.20
5459;DHT22;2752;49.992;8.422;2023-04-29T06:09:46;13.20;26.50
5459;DHT22;2752;49.992;8.422;2023-04-29T06:12:14;13.30;22.30
5459;DHT22;2752;49.992;8.422;2023-04-29T06:14:41;13.40;22.20
5459;DHT22;2752;49.992;8.422;2023-04-29T06:17:08;13.40;22.40
5459;DHT22;2752;49.992;8.422;2023-04-29T06:19:35;13.50;18.90
5459;DHT22;2752;49.992;8.422;2023-04-29T06:22:02;13.50;20.90
5459;DHT22;2752;49.992;8.422;2023-04-29T06:24:29;13.60;18.50
5459;DHT22;2752;49.992;8.422;2023-04-29T06:26:56;13.50;10.90
5459;DHT22;2752;49.992;8.422;2023-04-29T06:29:25;13.60;6.70
5459;DHT22;2752;49.992;8.422;2023-04-29T06:31:51;13.80;7.80
5459;DHT22;2752;49.992;8.422;2023-04-29T06:34:18;13.80;2.20
5459;DHT22;2752;49.992;8.422;2023-04-29T06:36:45;13.80;1.00
5459;DHT22;2752;49.992;8.422;2023-04-29T06:39:12;13.90;1.00
5459;DHT22;2752;49.992;8.422;2023-04-29T06:41:40;13.80;1.00
5459;DHT22;2752;49.992;8.422;2023-04-29T06:44:07;13.70;1.00
5459;DHT22;2752;49.992;8.422;2023-04-29T06:46:35;13.70;1.00
5459;DHT22;2752;49.992;8.422;2023-04-29T06:49:02;13.70;1.00
5459;DHT22;2752;49.992;8.422;2023-04-29T06:51:28;13.80;1.00
5459;DHT22;2752;49.992;8.422;2023-04-29T06:53:56;13.80;1.00
5459;DHT22;2752;49.992;8.422;2023-04-29T06:56:23;14.00;1.00
5459;DHT22;2752;49.992;8.422;2023-04-29T06:58:49;14.00;1.00
5459;DHT22;2752;49.992;8.422;2023-04-29T07:01:16;14.00;1.00
5459;DHT22;2752;49.992;8.422;2023-04-29T07:03:44;14.00;1.00
5459;DHT22;2752;49.992;8.422;2023-04-29T07:06:11;13.90;1.00
5459;DHT22;2752;49.992;8.422;2023-04-29T07:08:38;14.00;1.00
5459;DHT22;2752;49.992;8.422;2023-04-29T07:11:04;14.00;1.00
5459;DHT22;2752;49.992;8.422;2023-04-29T07:13:31;13.90;1.00
5459;DHT22;2752;49.992;8.422;2023-04-29T07:15:58;13.90;1.00
5459;DHT22;2752;49.992;8.422;2023-04-29T07:18:24;13.90;1.00
5459;DHT22;2752;49.992;8.422;2023-04-29T07:20:52;14.00;1.00
5459;DHT22;2752;49.992;8.422;2023-04-29T07:23:20;14.00;1.00
5459;DHT22;2752;49.992;8.422;2023-04-29T07:25:46;14.00;1.00
5459;DHT22;2752;49.992;8.422;2023-04-29T07:28:13;13.70;1.00
5459;DHT22;2752;49.992;8.422;2023-04-29T07:30:40;13.70;1.00
5459;DHT22;2752;49.992;8.422;2023-04-29T07:33:06;13.60;1.00
5459;DHT22;2752;49.992;8.422;2023-04-29T07:35:33;13.60;1.00
5459;DHT22;2752;49.992;8.422;2023-04-29T07:38:01;13.60;1.00
5459;DHT22;2752;49.992;8.422;2023-04-29T07:40:28;13.60;1.00
5459;DHT22;2752;49.992;8.422;2023-04-29T07:42:55;13.70;1.00
5459;DHT22;2752;49.992;8.422;2023-04-29T07:45:21;13.60;1.00
5459;DHT22;2752;49.992;8.422;2023-04-29T07:47:48;13.70;1.00
5459;DHT22;2752;49.992;8.422;2023-04-29T07:50:15;13.70;1.00
5459;DHT22;2752;49.992;8.422;2023-04-29T07:52:41;13.80;1.00
5459;DHT22;2752;49.992;8.422;2023-04-29T07:55:09;13.80;1.00
5459;DHT22;2752;49.992;8.422;2023-04-29T07:57:36;13.60;1.00
5459;DHT22;2752;49.992;8.422;2023-04-29T08:00:03;13.80;1.00
5459;DHT22;2752;49.992;8.422;2023-04-29T08:02:30;13.70;1.00
5459;DHT22;2752;49.992;8.422;2023-04-29T08:04:57;13.60;1.00
5459;DHT22;2752;49.992;8.422;2023-04-29T08:07:25;13.60;1.00
5459;DHT22;2752;49.992;8.422;2023-04-29T08:09:51;13.70;1.00
5459;DHT22;2752;49.992;8.422;2023-04-29T08:12:19;13.60;1.00
5459;DHT22;2752;49.992;8.422;2023-04-29T08:14:46;13.60;1.00
5459;DHT22;2752;49.992;8.422;2023-04-29T08:17:12;13.50;1.00
5459;DHT22;2752;49.992;8.422;2023-04-29T08:19:39;13.50;1.00
5459;DHT22;2752;49.992;8.422;2023-04-29T08:22:06;13.60;1.00
5459;DHT22;2752;49.992;8.422;2023-04-29T08:24:35;13.60;1.00
5459;DHT22;2752;49.992;8.422;2023-04-29T08:27:03;13.60;1.00
5459;DHT22;2752;49.992;8.422;2023-04-29T08:29:34;13.60;1.00
5459;DHT22;2752;49.992;8.422;2023-04-29T08:32:03;13.60;1.00
5459;DHT22;2752;49.992;8.422;2023-04-29T08:34:32;13.50;1.00
5459;DHT22;2752;49.992;8.422;2023-04-29T08:37:01;13.50;1.00
5459;DHT22;2752;49.992;8.422;2023-04-29T08:39:28;13.50;1.00
5459;DHT22;2752;49.992;8.422;2023-04-29T08:41:55;13.50;1.00
5459;DHT22;2752;49.992;8.422;2023-04-29T08:44:24;13.60;1.00
5459;DHT22;2752;49.992;8.422;2023-04-29T08:46:53;13.60;1.00
5459;DHT22;2752;49.992;8.422;2023-04-29T08:49:20;13.70;1.00
5459;DHT22;2752;49.992;8.422;2023-04-29T08:51:47;13.60;1.00
5459;DHT22;2752;49.992;8.422;2023-04-29T08:54:16;13.50;1.00
5459;DHT22;2752;49.992;8.422;2023-04-29T08:56:44;13.60;1.00
5459;DHT22;2752;49.992;8.422;2023-04-29T08:59:13;13.60;1.00
5459;DHT22;2752;49.992;8.422;2023-04-29T09:01:41;13.70;1.00
5459;DHT22;2752;49.992;8.422;2023-04-29T09:04:14;13.60;1.00
5459;DHT22;2752;49.992;8.422;2023-04-29T09:06:47;13.60;1.00
5459;DHT22;2752;49.992;8.422;2023-04-29T09:09:14;13.70;1.00
5459;DHT22;2752;49.992;8.422;2023-04-29T09:11:41;13.60;1.00
5459;DHT22;2752;49.992;8.422;2023-04-29T09:14:08;13.50;1.00
5459;DHT22;2752;49.992;8.422;2023-04-29T09:16:35;13.60;1.00
5459;DHT22;2752;49.992;8.422;2023-04-29T09:19:02;13.60;1.00
5459;DHT22;2752;49.992;8.422;2023-04-29T09:21:30;13.60;1.00
5459;DHT22;2752;49.992;8.422;2023-04-29T09:23:58;13.60;1.00
5459;DHT22;2752;49.992;8.422;2023-04-29T09:26:26;13.60;1.00
5459;DHT22;2752;49.992;8.422;2023-04-29T09:29:06;13.50;1.00
5459;DHT22;2752;49.992;8.422;2023-04-29T09:31:33;13.50;1.00
5459;DHT22;2752;49.992;8.422;2023-04-29T09:34:00;13.60;1.00
5459;DHT22;2752;49.992;8.422;2023-04-29T09:36:42;13.60;1.00
5459;DHT22;2752;49.992;8.422;2023-04-29T09:39:11;13.60;1.00
5459;DHT22;2752;49.992;8.422;2023-04-29T09:41:40;13.70;1.00
5459;DHT22;2752;49.992;8.422;2023-04-29T09:44:08;13.80;1.00
5459;DHT22;2752;49.992;8.422;2023-04-29T09:46:36;13.90;1.00
5459;DHT22;2752;49.992;8.422;2023-04-29T09:49:03;14.00;1.00
5459;DHT22;2752;49.992;8.422;2023-04-29T09:51:30;14.00;1.00
5459;DHT22;2752;49.992;8.422;2023-04-29T09:53:59;14.10;1.00
5459;DHT22;2752;49.992;8.422;2023-04-29T09:56:27;14.20;1.00
5459;DHT22;2752;49.992;8.422;2023-04-29T09:58:55;14.20;1.00
5459;DHT22;2752;49.992;8.422;2023-04-29T10:01:24;14.30;1.00
5459;DHT22;2752;49.992;8.422;2023-04-29T10:03:54;14.30;1.00
5459;DHT22;2752;49.992;8.422;2023-04-29T10:06:23;14.30;1.00
5459;DHT22;2752;49.992;8.422;2023-04-29T10:08:50;14.30;1.00
5459;DHT22;2752;49.992;8.422;2023-04-29T10:11:19;14.30;1.00
5459;DHT22;2752;49.992;8.422;2023-04-29T10:13:48;14.10;1.00
5459;DHT22;2752;49.992;8.422;2023-04-29T10:16:28;14.10;1.00
5459;DHT22;2752;49.992;8.422;2023-04-29T10:18:55;14.10;1.00
5459;DHT22;2752;49.992;8.422;2023-04-29T10:21:27;14.10;1.00
5459;DHT22;2752;49.992;8.422;2023-04-29T10:23:56;14.20;1.00
5459;DHT22;2752;49.992;8.422;2023-04-29T10:26:26;14.20;1.00
5459;DHT22;2752;49.992;8.422;2023-04-29T10:28:54;14.10;1.00
5459;DHT22;2752;49.992;8.422;2023-04-29T10:31:21;14.20;1.00
5459;DHT22;2752;49.992;8.422;2023-04-29T10:33:51;14.10;1.00
5459;DHT22;2752;49.992;8.422;2023-04-29T10:36:21;14.20;1.00
5459;DHT22;2752;49.992;8.422;2023-04-29T10:38:50;14.20;1.00
5459;DHT22;2752;49.992;8.422;2023-04-29T10:41:20;14.10;1.00
5459;DHT22;2752;49.992;8.422;2023-04-29T10:43:50;13.90;1.00
5459;DHT22;2752;49.992;8.422;2023-04-29T10:46:18;14.00;1.00
5459;DHT22;2752;49.992;8.422;2023-04-29T10:48:45;14.00;1.00
5459;DHT22;2752;49.992;8.422;2023-04-29T10:51:13;13.90;1.00
5459;DHT22;2752;49.992;8.422;2023-04-29T10:53:58;13.80;1.00
5459;DHT22;2752;49.992;8.422;2023-04-29T10:56:38;14.00;1.00
5459;DHT22;2752;49.992;8.422;2023-04-29T10:59:09;14.00;1.00
5459;DHT22;2752;49.992;8.422;2023-04-29T11:01:44;14.00;1.00
5459;DHT22;2752;49.992;8.422;2023-04-29T11:04:11;14.00;1.00
5459;DHT22;2752;49.992;8.422;2023-04-29T11:06:44;14.20;1.00
5459;DHT22;2752;49.992;8.422;2023-04-29T11:09:14;14.20;1.00
5459;DHT22;2752;49.992;8.422;2023-04-29T11:11:46;14.10;1.00
5459;DHT22;2752;49.992;8.422;2023-04-29T11:14:23;14.20;1.00
5459;DHT22;2752;49.992;8.422;2023-04-29T11:16:55;14.40;1.00
5459;DHT22;2752;49.992;8.422;2023-04-29T11:19:24;14.50;1.00
5459;DHT22;2752;49.992;8.422;2023-04-29T11:25:01;14.40;1.00
5459;DHT22;2752;49.992;8.422;2023-04-29T11:27:30;14.60;1.00
5459;DHT22;2752;49.992;8.422;2023-04-29T11:29:59;14.90;1.00
5459;DHT22;2752;49.992;8.422;2023-04-29T11:32:28;15.10;1.00
5459;DHT22;2752;49.992;8.422;2023-04-29T11:35:06;15.30;1.00
5459;DHT22;2752;49.992;8.422;2023-04-29T11:37:34;15.40;1.00
5459;DHT22;2752;49.992;8.422;2023-04-29T11:40:01;15.60;1.00
5459;DHT22;2752;49.992;8.422;2023-04-29T11:42:27;15.70;1.00
5459;DHT22;2752;49.992;8.422;2023-04-29T11:44:54;16.00;1.00
5459;DHT22;2752;49.992;8.422;2023-04-29T11:47:26;16.40;1.00
5459;DHT22;2752;49.992;8.422;2023-04-29T11:50:01;16.70;1.00
5459;DHT22;2752;49.992;8.422;2023-04-29T11:52:28;16.90;1.00
5459;DHT22;2752;49.992;8.422;2023-04-29T11:54:57;17.00;1.00
5459;DHT22;2752;49.992;8.422;2023-04-29T11:57:23;17.40;1.00
5459;DHT22;2752;49.992;8.422;2023-04-29T11:59:50;17.40;1.00
5459;DHT22;2752;49.992;8.422;2023-04-29T12:02:20;17.50;1.00
5459;DHT22;2752;49.992;8.422;2023-04-29T12:04:48;17.40;1.00
5459;DHT22;2752;49.992;8.422;2023-04-29T12:07:15;17.10;1.00
5459;DHT22;2752;49.992;8.422;2023-04-29T12:09:42;17.10;1.00
5459;DHT22;2752;49.992;8.422;2023-04-29T12:12:09;17.20;1.00
5459;DHT22;2752;49.992;8.422;2023-04-29T12:14:37;17.20;1.00
5459;DHT22;2752;49.992;8.422;2023-04-29T12:17:04;17.10;1.00
5459;DHT22;2752;49.992;8.422;2023-04-29T12:19:31;17.10;1.00
5459;DHT22;2752;49.992;8.422;2023-04-29T12:21:59;17.00;1.00
5459;DHT22;2752;49.992;8.422;2023-04-29T12:24:28;16.90;1.00
5459;DHT22;2752;49.992;8.422;2023-04-29T12:26:54;16.80;1.00
5459;DHT22;2752;49.992;8.422;2023-04-29T12:29:24;16.70;1.00
5459;DHT22;2752;49.992;8.422;2023-04-29T12:31:51;16.60;1.00
5459;DHT22;2752;49.992;8.422;2023-04-29T12:34:24;16.70;1.00
5459;DHT22;2752;49.992;8.422;2023-04-29T12:36:50;16.70;1.00
5459;DHT22;2752;49.992;8.422;2023-04-29T12:39:21;16.80;1.00
5459;DHT22;2752;49.992;8.422;2023-04-29T12:41:48;16.70;1.00
5459;DHT22;2752;49.992;8.422;2023-04-29T12:44:14;16.70;1.00
5459;DHT22;2752;49.992;8.422;2023-04-29T12:46:41;16.60;1.00
5459;DHT22;2752;49.992;8.422;2023-04-29T12:49:08;16.40;1.00
5459;DHT22;2752;49.992;8.422;2023-04-29T12:51:34;16.30;1.00
5459;DHT22;2752;49.992;8.422;2023-04-29T12:54:03;16.40;1.00
5459;DHT22;2752;49.992;8.422;2023-04-29T12:56:32;16.40;1.00
5459;DHT22;2752;49.992;8.422;2023-04-29T12:59:04;16.40;1.00
5459;DHT22;2752;49.992;8.422;2023-04-29T13:01:32;16.40;1.00
5459;DHT22;2752;49.992;8.422;2023-04-29T13:03:58;16.40;1.00
5459;DHT22;2752;49.992;8.422;2023-04-29T13:06:25;16.20;1.00
5459;DHT22;2752;49.992;8.422;2023-04-29T13:08:52;16.00;1.00
5459;DHT22;2752;49.992;8.422;2023-04-29T13:11:19;16.10;1.00
5459;DHT22;2752;49.992;8.422;2023-04-29T13:13:47;16.10;1.00
5459;DHT22;2752;49.992;8.422;2023-04-29T13:16:13;16.10;1.00
5459;DHT22;2752;49.992;8.422;2023-04-29T13:18:40;16.10;1.00
5459;DHT22;2752;49.992;8.422;2023-04-29T13:21:07;16.20;1.00
5459;DHT22;2752;49.992;8.422;2023-04-29T13:23:34;16.30;1.00
5459;DHT22;2752;49.992;8.422;2023-04-29T13:26:00;16.40;1.00
5459;DHT22;2752;49.992;8.422;2023-04-29T13:28:27;16.40;1.00
5459;DHT22;2752;49.992;8.422;2023-04-29T13:30:55;16.30;1.00
5459;DHT22;2752;49.992;8.422;2023-04-29T13:33:21;16.20;1.00
5459;DHT22;2752;49.992;8.422;2023-04-29T13:35:48;16.20;1.00
5459;DHT22;2752;49.992;8.422;2023-04-29T13:38:15;16.20;1.00
5459;DHT22;2752;49.992;8.422;2023-04-29T13:40:42;16.30;1.00
5459;DHT22;2752;49.992;8.422;2023-04-29T13:43:08;16.50;1.00
5459;DHT22;2752;49.992;8.422;2023-04-29T13:45:35;16.50;1.00
5459;DHT22;2752;49.992;8.422;2023-04-29T13:48:03;16.40;1.00
5459;DHT22;2752;49.992;8.422;2023-04-29T13:50:30;16.30;1.00
5459;DHT22;2752;49.992;8.422;2023-04-29T13:52:57;16.20;1.00
5459;DHT22;2752;49.992;8.422;2023-04-29T13:55:23;16.00;1.00
5459;DHT22;2752;49.992;8.422;2023-04-29T13:57:50;15.90;1.00
5459;DHT22;2752;49.992;8.422;2023-04-29T14:00:17;15.90;1.00
5459;DHT22;2752;49.992;8.422;2023-04-29T14:02:44;15.80;1.00
5459;DHT22;2752;49.992;8.422;2023-04-29T14:05:12;15.70;1.00
5459;DHT22;2752;49.992;8.422;2023-04-29T14:07:39;15.50;1.00
5459;DHT22;2752;49.992;8.422;2023-04-29T14:10:06;15.30;1.00
5459;DHT22;2752;49.992;8.422;2023-04-29T14:12:33;15.30;1.00
5459;DHT22;2752;49.992;8.422;2023-04-29T14:14:59;15.20;1.00
5459;DHT22;2752;49.992;8.422;2023-04-29T14:17:26;15.20;1.00
5459;DHT22;2752;49.992;8.422;2023-04-29T14:19:53;15.30;1.00
5459;DHT22;2752;49.992;8.422;2023-04-29T14:22:21;15.30;1.00
5459;DHT22;2752;49.992;8.422;2023-04-29T14:24:47;15.40;1.00
5459;DHT22;2752;49.992;8.422;2023-04-29T14:27:14;15.40;1.00
5459;DHT22;2752;49.992;8.422;2023-04-29T14:29:41;15.40;1.00
5459;DHT22;2752;49.992;8.422;2023-04-29T14:32:07;15.50;1.00
5459;DHT22;2752;49.992;8.422;2023-04-29T14:34:34;15.50;1.00
5459;DHT22;2752;49.992;8.422;2023-04-29T14:37:01;15.40;1.00
5459;DHT22;2752;49.992;8.422;2023-04-29T14:39:29;15.40;1.00
5459;DHT22;2752;49.992;8.422;2023-04-29T14:41:55;15.40;1.00
5459;DHT22;2752;49.992;8.422;2023-04-29T14:44:22;15.40;1.00
5459;DHT22;2752;49.992;8.422;2023-04-29T14:46:48;15.40;1.00
5459;DHT22;2752;49.992;8.422;2023-04-29T14:49:15;15.40;1.00
5459;DHT22;2752;49.992;8.422;2023-04-29T14:51:42;15.60;1.00
5459;DHT22;2752;49.992;8.422;2023-04-29T14:54:08;15.70;1.00
5459;DHT22;2752;49.992;8.422;2023-04-29T14:56:37;15.80;1.00
5459;DHT22;2752;49.992;8.422;2023-04-29T14:59:03;15.70;1.00
5459;DHT22;2752;49.992;8.422;2023-04-29T15:01:33;15.80;1.00
5459;DHT22;2752;49.992;8.422;2023-04-29T15:03:59;15.80;1.00
5459;DHT22;2752;49.992;8.422;2023-04-29T15:06:26;15.70;1.00
5459;DHT22;2752;49.992;8.422;2023-04-29T15:08:53;15.70;1.00
5459;DHT22;2752;49.992;8.422;2023-04-29T15:11:21;15.70;1.00
5459;DHT22;2752;49.992;8.422;2023-04-29T15:13:49;15.60;1.00
5459;DHT22;2752;49.992;8.422;2023-04-29T15:16:16;15.60;1.00
5459;DHT22;2752;49.992;8.422;2023-04-29T15:18:43;15.60;1.00
5459;DHT22;2752;49.992;8.422;2023-04-29T15:21:09;15.70;1.00
5459;DHT22;2752;49.992;8.422;2023-04-29T15:23:36;15.80;1.00
5459;DHT22;2752;49.992;8.422;2023-04-29T15:26:04;16.00;1.00
5459;DHT22;2752;49.992;8.422;2023-04-29T15:28:31;16.20;1.00
5459;DHT22;2752;49.992;8.422;2023-04-29T15:30:59;16.10;1.00
5459;DHT22;2752;49.992;8.422;2023-04-29T15:33:28;15.90;1.00
5459;DHT22;2752;49.992;8.422;2023-04-29T15:35:55;15.70;1.00
5459;DHT22;2752;49.992;8.422;2023-04-29T15:38:22;15.70;1.00
5459;DHT22;2752;49.992;8.422;2023-04-29T15:40:48;15.60;1.00
5459;DHT22;2752;49.992;8.422;2023-04-29T15:43:15;15.40;1.00
5459;DHT22;2752;49.992;8.422;2023-04-29T15:45:42;15.40;1.00
5459;DHT22;2752;49.992;8.422;2023-04-29T15:48:10;15.40;1.00
5459;DHT22;2752;49.992;8.422;2023-04-29T15:50:36;15.30;1.00
5459;DHT22;2752;49.992;8.422;2023-04-29T15:53:03;15.30;1.00
5459;DHT22;2752;49.992;8.422;2023-04-29T15:55:30;15.30;1.00
5459;DHT22;2752;49.992;8.422;2023-04-29T15:57:59;15.20;1.00
5459;DHT22;2752;49.992;8.422;2023-04-29T16:00:26;15.10;1.00
5459;DHT22;2752;49.992;8.422;2023-04-29T16:02:52;15.10;1.00
5459;DHT22;2752;49.992;8.422;2023-04-29T16:05:20;15.10;1.00
5459;DHT22;2752;49.992;8.422;2023-04-29T16:07:47;15.20;1.00
5459;DHT22;2752;49.992;8.422;2023-04-29T16:10:14;15.10;1.00
5459;DHT22;2752;49.992;8.422;2023-04-29T16:12:40;15.20;1.00
5459;DHT22;2752;49.992;8.422;2023-04-29T16:15:08;15.20;1.00
5459;DHT22;2752;49.992;8.422;2023-04-29T16:17:35;15.10;1.00
5459;DHT22;2752;49.992;8.422;2023-04-29T16:20:01;15.10;1.00
5459;DHT22;2752;49.992;8.422;2023-04-29T16:22:31;15.10;1.00
5459;DHT22;2752;49.992;8.422;2023-04-29T16:24:57;15.20;1.00